Time;durP1;ratioP1;P1;durP2;ratioP2;P2;SDS_P1;SDS_P2;PMS_P1;PMS_P2;Temp;Humidity;BMP_temperature;BMP_pressure;BME280_temperature;BME280_humidity;BME280_pressure;Samples;Min_cycle;Max_cycle;Signal;HPM_P1;HPM_P2
2021/07/07 04:31:29;;;;;;;5.00;2.77;;;15.80;99.90;;;;;;5769151;22;20267;-77
2021/07/07 04:33:55;;;;;;;2.80;2.60;;;15.70;99.90;;;;;;4989759;28;20477;-80
2021/07/07 04:36:21;;;;;;;4.13;3.23;;;15.70;99.90;;;;;;4988987;28;20182;-80
2021/07/07 04:38:46;;;;;;;5.63;3.70;;;15.70;99.90;;;;;;4981475;28;20615;-80
2021/07/07 04:41:12;;;;;;;3.50;3.20;;;15.70;99.90;;;;;;4996105;28;20203;-78
2021/07/07 04:43:38;;;;;;;5.00;2.77;;;15.70;99.90;;;;;;4992100;28;20186;-80
2021/07/07 04:46:04;;;;;;;4.23;2.87;;;15.70;99.90;;;;;;4996589;28;20226;-79
2021/07/07 04:48:29;;;;;;;5.33;2.17;;;15.70;99.90;;;;;;4990973;28;20438;-78
2021/07/07 04:50:55;;;;;;;4.53;2.40;;;15.70;99.90;;;;;;4992745;28;20684;-78
2021/07/07 04:53:20;;;;;;;3.73;2.47;;;15.70;99.90;;;;;;4987815;28;20262;-80
2021/07/07 04:55:46;;;;;;;8.60;2.50;;;15.70;99.90;;;;;;4990650;28;20213;-78
2021/07/07 04:58:11;;;;;;;2.27;1.57;;;15.70;99.90;;;;;;4970765;28;20187;-78
2021/07/07 05:00:37;;;;;;;3.47;2.63;;;15.70;99.90;;;;;;4972905;28;20176;-78
2021/07/07 05:03:02;;;;;;;3.00;2.80;;;15.70;99.90;;;;;;4976407;28;20187;-78
2021/07/07 05:05:28;;;;;;;2.63;2.17;;;15.80;99.90;;;;;;4977781;28;20192;-78
2021/07/07 05:07:53;;;;;;;2.50;2.30;;;15.70;99.90;;;;;;4972974;28;20235;-78
2021/07/07 05:10:19;;;;;;;2.27;1.90;;;15.70;99.90;;;;;;4988304;28;20230;-78
2021/07/07 05:12:46;;;;;;;2.90;2.17;;;15.70;99.90;;;;;;4986438;28;20207;-78
2021/07/07 05:15:12;;;;;;;2.97;1.63;;;15.80;99.90;;;;;;4988109;28;20250;-78
2021/07/07 05:17:39;;;;;;;2.27;2.10;;;15.80;99.90;;;;;;4993649;28;20442;-79
2021/07/07 05:20:06;;;;;;;2.30;2.10;;;15.80;99.90;;;;;;4991011;28;20958;-79
2021/07/07 05:22:31;;;;;;;2.27;2.10;;;15.90;99.90;;;;;;4993903;28;20574;-78
2021/07/07 05:24:57;;;;;;;2.47;2.27;;;15.80;99.90;;;;;;4976248;28;20928;-79
2021/07/07 05:27:23;;;;;;;2.30;2.10;;;15.90;99.90;;;;;;4975416;28;20211;-79
2021/07/07 05:29:48;;;;;;;3.13;2.27;;;15.90;99.90;;;;;;4992055;28;20273;-78
2021/07/07 05:32:20;;;;;;;3.37;2.70;;;16.00;99.90;;;;;;4994500;28;20223;-78
2021/07/07 05:34:47;;;;;;;3.00;2.37;;;16.00;99.90;;;;;;4985098;28;20213;-78
2021/07/07 05:37:13;;;;;;;2.70;2.57;;;16.10;99.90;;;;;;4994704;28;20430;-79
2021/07/07 05:39:39;;;;;;;3.10;2.80;;;16.20;99.90;;;;;;4996112;28;20792;-78
2021/07/07 05:42:04;;;;;;;2.27;2.17;;;16.20;99.90;;;;;;4993510;28;20457;-78
2021/07/07 05:44:30;;;;;;;3.00;2.80;;;16.20;99.90;;;;;;4991097;28;20187;-78
2021/07/07 05:46:56;;;;;;;5.30;2.40;;;16.20;99.90;;;;;;4984909;28;20191;-78
2021/07/07 05:49:21;;;;;;;3.77;2.33;;;16.20;99.90;;;;;;4976460;28;20180;-78
2021/07/07 05:51:47;;;;;;;2.93;2.73;;;16.20;99.90;;;;;;4977859;28;20231;-78
2021/07/07 05:54:12;;;;;;;3.10;2.87;;;16.20;99.90;;;;;;4960073;28;20572;-78
2021/07/07 05:56:38;;;;;;;3.00;2.20;;;16.20;99.90;;;;;;4976264;28;20180;-78
2021/07/07 05:59:03;;;;;;;2.53;2.33;;;16.20;99.90;;;;;;4976551;28;20221;-78
2021/07/07 06:01:29;;;;;;;2.70;2.50;;;16.20;99.90;;;;;;4975896;28;20302;-78
2021/07/07 06:03:54;;;;;;;2.60;2.40;;;16.30;99.90;;;;;;4975848;28;20704;-79
2021/07/07 06:06:20;;;;;;;2.30;2.20;;;16.30;99.90;;;;;;4976374;28;20176;-79
2021/07/07 06:08:45;;;;;;;2.70;2.50;;;16.30;99.90;;;;;;4976288;28;20176;-78
2021/07/07 06:11:11;;;;;;;4.80;2.67;;;16.30;99.90;;;;;;4976264;28;20203;-79
2021/07/07 06:13:37;;;;;;;2.90;2.70;;;16.30;99.90;;;;;;4975714;28;20179;-78
2021/07/07 06:16:02;;;;;;;2.97;1.67;;;16.40;99.90;;;;;;4976014;28;20168;-79
2021/07/07 06:18:28;;;;;;;4.63;2.60;;;16.50;99.90;;;;;;4975850;28;20646;-79
2021/07/07 06:20:54;;;;;;;2.20;2.00;;;16.60;99.90;;;;;;4976094;28;20196;-78
2021/07/07 06:23:19;;;;;;;2.47;2.27;;;16.70;99.90;;;;;;4975621;28;20195;-78
2021/07/07 06:25:45;;;;;;;4.70;2.87;;;16.70;99.90;;;;;;4975771;28;20241;-78
2021/07/07 06:28:11;;;;;;;3.67;1.50;;;16.70;99.90;;;;;;4958249;28;20172;-78
2021/07/07 06:30:36;;;;;;;1.43;1.33;;;16.60;99.90;;;;;;4975518;28;20176;-78
2021/07/07 06:33:02;;;;;;;1.67;1.50;;;16.50;99.90;;;;;;4975734;28;20442;-78
2021/07/07 06:35:31;;;;;;;1.40;1.30;;;16.50;99.90;;;;;;4957757;28;20215;-78
2021/07/07 06:37:58;;;;;;;1.97;1.70;;;16.50;99.90;;;;;;4975696;28;20416;-78
2021/07/07 06:40:24;;;;;;;5.43;1.30;;;16.50;99.90;;;;;;4975094;28;20439;-77
2021/07/07 06:42:50;;;;;;;2.00;1.90;;;16.50;99.90;;;;;;4974384;28;20430;-77
2021/07/07 06:45:17;;;;;;;11.23;1.90;;;16.50;99.90;;;;;;4975380;28;20412;-78
2021/07/07 06:47:42;;;;;;;2.80;1.80;;;16.50;99.90;;;;;;4959479;28;20546;-78
2021/07/07 06:50:11;;;;;;;2.40;2.20;;;16.60;99.90;;;;;;4974932;28;20411;-79
2021/07/07 06:52:36;;;;;;;2.30;1.90;;;16.50;99.90;;;;;;4959431;28;20739;-78
2021/07/07 06:55:03;;;;;;;2.57;1.57;;;16.50;99.90;;;;;;4975526;28;20459;-78
2021/07/07 06:57:34;;;;;;;2.60;1.80;;;16.40;99.90;;;;;;4974779;28;20179;-78
2021/07/07 07:00:01;;;;;;;2.87;1.70;;;16.40;99.90;;;;;;4975237;28;20935;-78
2021/07/07 07:02:30;;;;;;;1.90;1.80;;;16.40;99.90;;;;;;4974770;28;20434;-78
2021/07/07 07:04:56;;;;;;;4.83;1.90;;;16.30;99.90;;;;;;4975027;28;20435;-78
2021/07/07 07:07:21;;;;;;;2.27;1.63;;;16.30;99.90;;;;;;4974062;28;20427;-79
2021/07/07 07:09:47;;;;;;;1.80;1.70;;;16.30;99.90;;;;;;4973722;28;20183;-78
2021/07/07 07:12:12;;;;;;;1.77;1.67;;;16.30;99.90;;;;;;4974437;28;20202;-77
2021/07/07 07:14:38;;;;;;;2.40;1.40;;;16.40;99.90;;;;;;4974463;28;20209;-78
2021/07/07 07:17:03;;;;;;;2.40;2.00;;;16.40;99.90;;;;;;4984630;28;20212;-78
2021/07/07 07:19:29;;;;;;;3.80;2.20;;;16.40;99.90;;;;;;4977038;28;20239;-78
2021/07/07 07:21:54;;;;;;;6.27;2.07;;;16.50;99.90;;;;;;4994695;28;20245;-79
2021/07/07 07:24:20;;;;;;;2.13;1.43;;;16.50;99.90;;;;;;4995947;28;20179;-79
2021/07/07 07:26:45;;;;;;;2.53;1.93;;;16.50;99.90;;;;;;4993741;28;20207;-79
2021/07/07 07:29:11;;;;;;;4.10;2.17;;;16.50;99.90;;;;;;4993824;28;20187;-79
2021/07/07 07:31:37;;;;;;;7.57;2.20;;;16.60;99.90;;;;;;4993294;28;20215;-79
2021/07/07 07:34:03;;;;;;;4.23;2.17;;;16.60;99.90;;;;;;4993954;28;20792;-79
2021/07/07 07:36:29;;;;;;;2.17;1.30;;;16.70;99.90;;;;;;4993649;28;20593;-79
2021/07/07 07:38:59;;;;;;;1.60;1.50;;;16.80;99.90;;;;;;4997712;28;20184;-79
2021/07/07 07:41:30;;;;;;;1.33;1.23;;;16.90;99.90;;;;;;4996137;28;20441;-80
2021/07/07 07:43:56;;;;;;;1.90;1.03;;;16.90;99.90;;;;;;4994930;28;20931;-79
2021/07/07 07:46:26;;;;;;;2.00;1.23;;;17.10;99.90;;;;;;4993825;28;20414;-79
2021/07/07 07:48:54;;;;;;;3.53;1.17;;;17.10;99.90;;;;;;4995735;28;20410;-79
2021/07/07 07:51:19;;;;;;;1.33;1.10;;;17.20;99.90;;;;;;4996240;28;20936;-80
2021/07/07 07:53:46;;;;;;;3.27;1.20;;;17.20;99.90;;;;;;4994301;28;20425;-78
2021/07/07 07:56:12;;;;;;;5.10;1.27;;;17.20;99.90;;;;;;4996825;28;20171;-79
2021/07/07 07:58:37;;;;;;;1.20;1.10;;;17.30;99.90;;;;;;4997368;28;20923;-79
2021/07/07 08:01:03;;;;;;;2.93;0.80;;;17.40;99.90;;;;;;4997789;28;20191;-80
2021/07/07 08:03:28;;;;;;;1.87;1.73;;;17.50;99.90;;;;;;4996608;28;20179;-80
2021/07/07 08:05:54;;;;;;;1.30;1.20;;;17.60;99.90;;;;;;4996083;28;20198;-79
2021/07/07 08:08:19;;;;;;;1.63;1.10;;;17.80;99.90;;;;;;4995481;28;20249;-78
2021/07/07 08:10:45;;;;;;;1.57;1.40;;;17.80;99.90;;;;;;4995816;28;20718;-79
2021/07/07 08:13:10;;;;;;;1.10;0.97;;;17.80;99.90;;;;;;4995118;28;20179;-79
2021/07/07 08:15:36;;;;;;;2.20;1.20;;;17.80;99.90;;;;;;4994546;28;20211;-78
2021/07/07 08:18:03;;;;;;;11.33;1.73;;;17.80;99.90;;;;;;4992865;28;20190;-79
2021/07/07 08:20:28;;;;;;;2.13;1.83;;;17.90;99.90;;;;;;4993873;28;20411;-78
2021/07/07 08:22:54;;;;;;;3.60;1.60;;;17.80;99.90;;;;;;4993968;28;20521;-79
2021/07/07 08:25:20;;;;;;;1.70;1.60;;;17.80;99.90;;;;;;4993346;28;20550;-78
2021/07/07 08:27:46;;;;;;;4.50;1.90;;;17.80;99.90;;;;;;4991712;28;20418;-78
2021/07/07 08:30:13;;;;;;;2.80;1.87;;;17.70;99.90;;;;;;4993380;28;20258;-79
2021/07/07 08:32:38;;;;;;;4.20;1.60;;;17.70;99.90;;;;;;4993155;28;20831;-79
2021/07/07 08:35:05;;;;;;;3.77;1.73;;;17.70;99.90;;;;;;4993450;28;20561;-78
2021/07/07 08:37:32;;;;;;;1.97;1.73;;;17.70;99.90;;;;;;4992154;28;20184;-78
2021/07/07 08:39:57;;;;;;;2.80;1.90;;;17.70;99.90;;;;;;4992690;28;20454;-78
2021/07/07 08:42:23;;;;;;;2.17;1.97;;;17.70;99.90;;;;;;4992601;28;20450;-78
2021/07/07 08:44:49;;;;;;;3.43;2.20;;;17.60;99.90;;;;;;4992727;28;20179;-78
2021/07/07 08:47:15;;;;;;;1.80;1.63;;;17.60;99.90;;;;;;4992890;28;20176;-79
2021/07/07 08:49:40;;;;;;;9.90;1.83;;;17.60;99.90;;;;;;4993317;28;20179;-78
2021/07/07 08:52:06;;;;;;;6.67;2.40;;;17.60;99.90;;;;;;4992765;28;20694;-78
2021/07/07 08:54:33;;;;;;;4.07;1.80;;;17.70;99.90;;;;;;4993004;28;20556;-77
2021/07/07 08:57:08;;;;;;;2.57;1.90;;;17.70;99.90;;;;;;4993593;28;20218;-78
2021/07/07 08:59:35;;;;;;;4.53;2.10;;;17.60;99.90;;;;;;4993245;28;21001;-79
2021/07/07 09:02:02;;;;;;;2.27;2.07;;;17.60;99.90;;;;;;4994790;28;20569;-79
2021/07/07 09:04:36;;;;;;;2.87;1.53;;;17.70;99.90;;;;;;4996890;28;20862;-80
2021/07/07 09:07:14;;;;;;;2.07;1.87;;;17.90;99.90;;;;;;4995893;28;20417;-79
2021/07/07 09:09:45;;;;;;;2.20;2.03;;;18.10;99.90;;;;;;4993358;28;20793;-79
2021/07/07 09:12:24;;;;;;;5.27;2.00;;;18.30;99.90;;;;;;4995018;28;20430;-79
2021/07/07 09:15:05;;;;;;;4.73;2.13;;;18.50;99.90;;;;;;4994745;28;20466;-79
2021/07/07 09:17:41;;;;;;;5.83;1.80;;;18.60;99.90;;;;;;4993810;28;21010;-79
2021/07/07 09:20:25;;;;;;;2.27;1.80;;;18.60;99.90;;;;;;4993005;28;21031;-79
2021/07/07 09:23:12;;;;;;;4.77;2.03;;;18.70;99.90;;;;;;4993059;28;20474;-79
2021/07/07 09:26:05;;;;;;;3.83;2.00;;;18.70;99.90;;;;;;4993769;28;20441;-79
2021/07/07 09:28:31;;;;;;;5.20;2.57;;;18.50;99.90;;;;;;4992468;28;20427;-78
2021/07/07 09:31:00;;;;;;;6.83;3.00;;;18.40;99.90;;;;;;4992679;28;20439;-79
2021/07/07 09:33:26;;;;;;;5.13;2.57;;;18.40;99.90;;;;;;4992735;28;20425;-79
2021/07/07 09:35:52;;;;;;;7.37;2.20;;;18.40;99.90;;;;;;4993869;28;20497;-78
2021/07/07 09:38:18;;;;;;;4.63;2.30;;;18.40;99.90;;;;;;4992609;28;20454;-79
2021/07/07 09:40:44;;;;;;;6.17;2.33;;;18.40;99.90;;;;;;4993481;28;20414;-79
2021/07/07 09:43:11;;;;;;;3.03;1.70;;;18.60;99.90;;;;;;4992936;28;20187;-79
2021/07/07 09:45:46;;;;;;;5.33;1.57;;;18.60;99.90;;;;;;4993081;28;20430;-79
2021/07/07 09:48:13;;;;;;;3.83;1.90;;;18.70;99.90;;;;;;4993434;28;20414;-78
2021/07/07 09:50:41;;;;;;;3.97;1.70;;;18.60;99.90;;;;;;4994222;28;20999;-78
2021/07/07 09:53:09;;;;;;;4.53;2.10;;;18.60;99.90;;;;;;4994413;28;20414;-78
2021/07/07 09:55:36;;;;;;;5.53;1.83;;;18.70;99.90;;;;;;4994042;28;20465;-79
2021/07/07 09:58:01;;;;;;;4.77;1.80;;;18.60;99.90;;;;;;4994797;28;20425;-79
2021/07/07 10:00:27;;;;;;;6.23;2.27;;;18.60;99.90;;;;;;4994793;28;20426;-79
2021/07/07 10:02:54;;;;;;;6.27;2.00;;;18.60;99.90;;;;;;4994004;28;20202;-79
2021/07/07 10:05:21;;;;;;;2.80;1.93;;;18.60;99.90;;;;;;4995000;28;20172;-79
2021/07/07 10:07:48;;;;;;;3.97;2.53;;;18.60;99.90;;;;;;4994518;28;20959;-79
2021/07/07 10:10:15;;;;;;;25.10;13.53;;;18.60;99.90;;;;;;4992952;28;20458;-78
2021/07/07 10:12:46;;;;;;;25.93;13.43;;;18.70;99.90;;;;;;4993161;28;20466;-78
2021/07/07 10:15:14;;;;;;;6.87;4.90;;;18.70;99.90;;;;;;4990896;28;20470;-78
2021/07/07 10:17:41;;;;;;;5.47;2.60;;;18.90;99.90;;;;;;4993830;28;20426;-78
2021/07/07 10:20:12;;;;;;;9.20;2.90;;;19.00;99.90;;;;;;4995875;28;20516;-78
2021/07/07 10:22:39;;;;;;;6.03;2.30;;;19.10;99.90;;;;;;4995065;28;20855;-76
2021/07/07 10:25:16;;;;;;;4.60;2.10;;;19.30;99.90;;;;;;4994891;28;20422;-76
2021/07/07 10:27:43;;;;;;;4.33;1.90;;;19.40;99.90;;;;;;4994963;28;20418;-77
2021/07/07 10:30:10;;;;;;;5.57;2.23;;;19.70;99.90;;;;;;4995141;28;20456;-77
2021/07/07 10:32:35;;;;;;;4.50;2.00;;;19.80;99.90;;;;;;4995693;28;20461;-76
2021/07/07 10:35:09;;;;;;;2.07;1.97;;;19.50;99.90;;;;;;4995081;28;20474;-77
2021/07/07 10:37:36;;;;;;;7.70;2.37;;;19.60;99.90;;;;;;4994882;28;20179;-76
2021/07/07 10:40:29;;;;;;;4.73;1.80;;;19.70;99.90;;;;;;4994875;28;20421;-77
2021/07/07 10:42:55;;;;;;;6.20;1.53;;;19.70;99.90;;;;;;4995099;28;20430;-78
2021/07/07 10:45:41;;;;;;;1.47;1.37;;;19.80;99.90;;;;;;4995330;28;20426;-77
2021/07/07 10:48:30;;;;;;;3.70;1.97;;;20.00;99.90;;;;;;4994373;28;20465;-78
2021/07/07 10:51:01;;;;;;;2.93;1.40;;;20.20;99.90;;;;;;4994318;28;20489;-78
2021/07/07 10:53:33;;;;;;;7.87;2.13;;;20.20;99.90;;;;;;4993961;28;20776;-78
2021/07/07 10:56:00;;;;;;;7.30;1.87;;;20.20;99.90;;;;;;4994530;28;20500;-77
2021/07/07 10:58:27;;;;;;;7.60;2.40;;;20.20;99.90;;;;;;4993962;28;20417;-78
2021/07/07 11:00:53;;;;;;;4.87;2.20;;;20.20;99.90;;;;;;4993728;28;20419;-78
2021/07/07 11:03:36;;;;;;;12.00;3.97;;;20.20;99.90;;;;;;4994138;28;20469;-78
2021/07/07 11:06:28;;;;;;;6.93;2.40;;;20.20;99.90;;;;;;4994338;28;20183;-78
2021/07/07 11:09:07;;;;;;;4.90;2.60;;;20.40;99.90;;;;;;4993986;28;20425;-77
2021/07/07 11:11:35;;;;;;;4.20;2.00;;;20.50;99.90;;;;;;4994554;28;20445;-78
2021/07/07 11:14:24;;;;;;;5.60;1.87;;;20.70;99.90;;;;;;4993519;28;20521;-78
2021/07/07 11:17:00;;;;;;;5.73;2.40;;;20.40;99.90;;;;;;4977330;28;20427;-77
2021/07/07 11:19:42;;;;;;;1.57;1.20;;;20.50;99.90;;;;;;4993670;28;20425;-77
2021/07/07 11:22:09;;;;;;;1.33;0.83;;;20.60;99.90;;;;;;4993926;28;20430;-78
2021/07/07 11:24:35;;;;;;;2.00;1.10;;;20.70;99.90;;;;;;4993634;28;20414;-78
2021/07/07 11:27:05;;;;;;;1.57;1.20;;;20.70;99.90;;;;;;4993816;28;20433;-78
2021/07/07 11:29:31;;;;;;;2.50;1.40;;;20.80;99.90;;;;;;4993211;28;20270;-77
2021/07/07 11:31:58;;;;;;;1.93;0.93;;;20.90;99.90;;;;;;4976138;28;20477;-75
2021/07/07 11:34:24;;;;;;;3.23;1.43;;;20.80;99.90;;;;;;4993750;28;20458;-76
2021/07/07 11:36:50;;;;;;;1.60;1.30;;;20.90;99.90;;;;;;4993784;28;20417;-75
2021/07/07 11:39:20;;;;;;;3.57;1.10;;;21.10;99.90;;;;;;4993445;28;20234;-76
2021/07/07 11:42:06;;;;;;;1.87;1.40;;;21.10;99.90;;;;;;4993872;28;20939;-76
2021/07/07 11:44:41;;;;;;;1.47;0.87;;;21.10;99.90;;;;;;4992981;28;20418;-76
2021/07/07 11:47:07;;;;;;;7.20;1.63;;;21.10;99.90;;;;;;4993231;28;20779;-76
2021/07/07 11:49:33;;;;;;;1.53;1.40;;;21.20;99.90;;;;;;4993013;28;20419;-76
2021/07/07 11:52:04;;;;;;;1.03;0.93;;;21.40;99.90;;;;;;4993351;28;20812;-75
2021/07/07 11:54:47;;;;;;;2.10;1.13;;;21.60;99.90;;;;;;4992991;28;20199;-76
2021/07/07 11:57:13;;;;;;;3.60;1.33;;;21.70;99.90;;;;;;4993492;28;20498;-76
2021/07/07 11:59:38;;;;;;;1.50;1.40;;;21.60;99.90;;;;;;4992943;28;20501;-76
2021/07/07 12:02:04;;;;;;;4.00;1.20;;;21.70;99.90;;;;;;4992997;28;20529;-75
2021/07/07 12:04:30;;;;;;;1.50;1.40;;;21.70;99.90;;;;;;4992550;28;20179;-75
2021/07/07 12:06:58;;;;;;;4.70;0.90;;;21.70;99.90;;;;;;4992988;28;20190;-76
2021/07/07 12:09:24;;;;;;;2.47;1.30;;;22.00;99.90;;;;;;4992684;28;20571;-76
2021/07/07 12:11:54;;;;;;;2.03;1.03;;;22.30;99.90;;;;;;4992639;28;20473;-75
2021/07/07 12:14:22;;;;;;;1.13;1.03;;;22.60;99.90;;;;;;4992484;28;20238;-75
2021/07/07 12:16:48;;;;;;;1.30;0.90;;;22.90;99.90;;;;;;4993070;28;20439;-76
2021/07/07 12:19:15;;;;;;;3.20;1.10;;;22.90;99.90;;;;;;4993094;28;20450;-76
2021/07/07 12:21:52;;;;;;;0.83;0.67;;;22.90;99.90;;;;;;4992653;28;20191;-75
2021/07/07 12:24:19;;;;;;;2.77;0.83;;;22.80;99.90;;;;;;4992442;28;20443;-76
2021/07/07 12:26:48;;;;;;;0.80;0.80;;;22.70;99.90;;;;;;4975375;28;20422;-77
2021/07/07 12:29:25;;;;;;;2.43;1.23;;;22.70;99.90;;;;;;4992201;28;20484;-76
2021/07/07 12:31:58;;;;;;;3.00;0.93;;;22.60;99.90;;;;;;4992671;28;20881;-75
2021/07/07 12:34:27;;;;;;;0.80;0.80;;;22.60;99.90;;;;;;4974605;28;20467;-74
2021/07/07 12:36:55;;;;;;;1.77;0.93;;;22.60;99.90;;;;;;4992559;28;20501;-74
2021/07/07 12:39:26;;;;;;;2.70;1.10;;;22.50;99.90;;;;;;4991626;28;20446;-74
2021/07/07 12:42:13;;;;;;;2.43;0.90;;;22.40;99.90;;;;;;4992265;28;20437;-76
2021/07/07 12:44:41;;;;;;;2.00;0.70;;;22.40;99.90;;;;;;4992182;28;20931;-76
2021/07/07 12:47:09;;;;;;;1.00;0.90;;;22.30;99.90;;;;;;4991862;28;20427;-76
2021/07/07 12:49:43;;;;;;;1.47;0.60;;;22.30;99.90;;;;;;4972220;28;20439;-76
2021/07/07 12:52:36;;;;;;;1.00;0.80;;;22.30;99.90;;;;;;4972629;28;20441;-76
2021/07/07 12:55:13;;;;;;;1.67;0.60;;;22.50;99.90;;;;;;4966058;28;20490;-75
2021/07/07 12:58:01;;;;;;;3.00;0.90;;;22.70;99.90;;;;;;4955054;28;20788;-76
2021/07/07 13:00:43;;;;;;;3.70;0.70;;;23.00;99.90;;;;;;4972416;28;20424;-76
2021/07/07 13:03:11;;;;;;;2.03;0.80;;;23.10;99.90;;;;;;4972366;28;20426;-76
2021/07/07 13:05:44;;;;;;;0.77;0.57;;;23.30;99.90;;;;;;4972488;28;20427;-76
2021/07/07 13:08:15;;;;;;;1.70;1.60;;;23.30;99.90;;;;;;4955045;28;20786;-75
2021/07/07 13:10:42;;;;;;;1.13;0.63;;;23.50;99.90;;;;;;4972512;28;20479;-75
2021/07/07 13:13:20;;;;;;;0.70;0.60;;;23.50;99.90;;;;;;4977234;28;20800;-76
2021/07/07 13:16:07;;;;;;;0.63;0.63;;;23.50;99.90;;;;;;4974710;28;21047;-77
2021/07/07 13:18:36;;;;;;;1.33;0.90;;;23.50;99.90;;;;;;4972254;28;20415;-76
2021/07/07 13:21:03;;;;;;;0.73;0.60;;;23.50;99.90;;;;;;4972611;28;20450;-77
2021/07/07 13:23:29;;;;;;;1.77;0.70;;;23.60;99.90;;;;;;4972227;28;20419;-76
2021/07/07 13:26:21;;;;;;;5.03;0.87;;;23.40;99.90;;;;;;4972561;28;20515;-76
2021/07/07 13:28:50;;;;;;;0.97;0.53;;;23.30;99.90;;;;;;4987695;28;20791;-76
2021/07/07 13:31:19;;;;;;;0.83;0.83;;;23.40;99.90;;;;;;4991404;28;20454;-75
2021/07/07 13:33:45;;;;;;;0.70;0.70;;;23.50;99.90;;;;;;4991318;28;20777;-76
2021/07/07 13:36:10;;;;;;;0.70;0.70;;;23.30;99.90;;;;;;4991687;28;20558;-75
2021/07/07 13:38:36;;;;;;;0.70;0.60;;;23.50;99.90;;;;;;4992814;28;20167;-75
2021/07/07 13:41:01;;;;;;;1.80;0.70;;;23.70;99.90;;;;;;4993954;28;20197;-76
2021/07/07 13:43:27;;;;;;;0.93;0.80;;;23.70;99.90;;;;;;4991418;28;20175;-76
2021/07/07 13:45:52;;;;;;;0.87;0.70;;;23.80;99.90;;;;;;4991414;28;20545;-76
2021/07/07 13:48:18;;;;;;;0.70;0.70;;;23.70;99.90;;;;;;4991355;28;20187;-76
2021/07/07 13:50:43;;;;;;;0.57;0.57;;;23.50;99.90;;;;;;4991624;28;20206;-75
2021/07/07 13:53:09;;;;;;;0.90;0.70;;;23.30;99.90;;;;;;4995237;28;20179;-75
2021/07/07 13:55:34;;;;;;;1.67;0.67;;;23.10;99.90;;;;;;4995260;28;20206;-76
2021/07/07 13:58:00;;;;;;;1.20;0.80;;;23.00;99.90;;;;;;4995437;28;20176;-76
2021/07/07 14:00:26;;;;;;;0.70;0.70;;;23.00;99.90;;;;;;4995320;28;20195;-75
2021/07/07 14:02:52;;;;;;;1.07;0.80;;;22.90;99.90;;;;;;4993795;28;20247;-76
2021/07/07 14:05:17;;;;;;;1.70;0.80;;;22.90;99.90;;;;;;4995303;28;20183;-75
2021/07/07 14:07:44;;;;;;;0.60;0.60;;;23.00;99.90;;;;;;4994880;28;20665;-76
2021/07/07 14:10:11;;;;;;;1.00;0.70;;;23.20;99.90;;;;;;4994951;28;20222;-76
2021/07/07 14:12:36;;;;;;;0.80;0.63;;;23.30;99.90;;;;;;4994735;28;20776;-75
2021/07/07 14:15:03;;;;;;;0.80;0.80;;;23.20;99.90;;;;;;4993426;28;20468;-76
2021/07/07 14:17:28;;;;;;;0.97;0.60;;;23.00;99.90;;;;;;4994837;28;20175;-76
2021/07/07 14:19:54;;;;;;;0.87;0.60;;;23.00;99.90;;;;;;4995002;28;20418;-75
2021/07/07 14:22:20;;;;;;;0.70;0.70;;;22.90;99.90;;;;;;4992250;28;20199;-76
2021/07/07 14:24:45;;;;;;;0.67;0.67;;;23.00;99.90;;;;;;5006285;28;20210;-77
2021/07/07 14:27:11;;;;;;;0.70;0.70;;;23.10;99.90;;;;;;5012919;28;20225;-77
2021/07/07 14:29:36;;;;;;;0.80;0.60;;;23.20;99.90;;;;;;5014086;28;20301;-77
2021/07/07 14:32:02;;;;;;;5.70;0.80;;;23.20;99.90;;;;;;5012822;28;20214;-79
2021/07/07 14:34:28;;;;;;;0.73;0.70;;;23.20;99.90;;;;;;5013894;28;20199;-77
2021/07/07 14:36:53;;;;;;;0.70;0.70;;;23.40;99.90;;;;;;5014395;28;20179;-76
2021/07/07 14:39:19;;;;;;;0.80;0.60;;;23.30;99.90;;;;;;5014072;28;20178;-77
2021/07/07 14:41:44;;;;;;;1.23;0.60;;;23.20;99.90;;;;;;5014363;28;20675;-77
2021/07/07 14:44:10;;;;;;;1.17;0.60;;;23.20;99.90;;;;;;5014974;28;20185;-77
2021/07/07 14:46:36;;;;;;;0.80;0.60;;;23.10;99.90;;;;;;5015252;28;20266;-77
2021/07/07 14:49:02;;;;;;;1.43;0.70;;;23.10;99.90;;;;;;5015391;28;20214;-77
2021/07/07 14:51:28;;;;;;;0.60;0.60;;;23.10;99.90;;;;;;5015073;28;20438;-78
2021/07/07 14:53:53;;;;;;;0.90;0.63;;;23.10;99.90;;;;;;5014246;28;20416;-76
2021/07/07 14:56:20;;;;;;;1.70;0.70;;;23.10;99.90;;;;;;5014541;28;20174;-76
2021/07/07 14:58:45;;;;;;;1.37;0.60;;;23.10;99.90;;;;;;4997948;28;20187;-76
2021/07/07 15:01:11;;;;;;;0.60;0.60;;;23.20;99.90;;;;;;5013681;28;20433;-76
2021/07/07 15:03:36;;;;;;;0.90;0.50;;;23.10;99.90;;;;;;5013074;28;20179;-77
2021/07/07 15:06:02;;;;;;;0.77;0.70;;;23.20;99.90;;;;;;5014864;28;20581;-77
2021/07/07 15:08:27;;;;;;;0.60;0.60;;;23.30;99.90;;;;;;5013721;28;20189;-76
2021/07/07 15:10:53;;;;;;;0.70;0.70;;;23.40;99.90;;;;;;5013716;28;20270;-76
2021/07/07 15:13:18;;;;;;;1.10;0.70;;;23.60;99.90;;;;;;5013079;28;20237;-76
2021/07/07 15:15:44;;;;;;;0.70;0.70;;;23.40;99.90;;;;;;5013086;28;20300;-76
2021/07/07 15:18:10;;;;;;;0.60;0.50;;;23.30;99.90;;;;;;5013369;28;20628;-77
2021/07/07 15:20:37;;;;;;;0.70;0.70;;;23.20;99.90;;;;;;5013039;28;20178;-76
2021/07/07 15:23:04;;;;;;;0.70;0.60;;;23.20;99.90;;;;;;5013112;28;20213;-76
2021/07/07 15:25:30;;;;;;;0.70;0.60;;;23.20;99.90;;;;;;5013236;28;20440;-76
2021/07/07 15:27:55;;;;;;;1.03;0.50;;;23.20;99.90;;;;;;5012953;28;20425;-77
2021/07/07 15:30:22;;;;;;;1.73;0.60;;;23.20;99.90;;;;;;5013007;28;20615;-77
2021/07/07 15:32:49;;;;;;;0.70;0.70;;;23.30;99.90;;;;;;5012947;28;20305;-76
2021/07/07 15:35:15;;;;;;;1.60;0.70;;;23.30;99.90;;;;;;5013012;28;20858;-76
2021/07/07 15:37:41;;;;;;;0.63;0.60;;;23.40;99.90;;;;;;5012633;28;20497;-76
2021/07/07 15:40:07;;;;;;;0.60;0.60;;;23.40;99.90;;;;;;5012957;28;20170;-77
2021/07/07 15:42:33;;;;;;;0.60;0.60;;;23.40;99.90;;;;;;5012597;28;20249;-77
2021/07/07 15:44:58;;;;;;;0.77;0.70;;;23.60;99.90;;;;;;5012930;28;20910;-78
2021/07/07 15:47:24;;;;;;;0.70;0.70;;;23.50;99.90;;;;;;5013064;28;20186;-79
2021/07/07 15:49:49;;;;;;;1.47;0.70;;;23.50;99.90;;;;;;5012268;28;20178;-78
2021/07/07 15:52:15;;;;;;;1.33;0.60;;;23.40;99.90;;;;;;5013641;28;20195;-77
2021/07/07 15:54:41;;;;;;;2.00;1.37;;;23.20;99.90;;;;;;5011835;28;20206;-77
2021/07/07 15:57:06;;;;;;;0.60;0.60;;;23.10;99.90;;;;;;5017912;28;20329;-77
2021/07/07 15:59:32;;;;;;;2.67;0.73;;;23.00;99.90;;;;;;5014329;28;20166;-75
2021/07/07 16:01:57;;;;;;;1.00;0.90;;;23.00;99.90;;;;;;5012532;28;20205;-75
2021/07/07 16:04:23;;;;;;;0.90;0.73;;;23.10;99.90;;;;;;5011993;28;20644;-75
2021/07/07 16:06:48;;;;;;;1.60;0.80;;;23.00;99.90;;;;;;5012680;28;20189;-75
2021/07/07 16:09:14;;;;;;;1.10;0.80;;;23.10;99.90;;;;;;5012198;28;20662;-75
2021/07/07 16:11:39;;;;;;;0.73;0.73;;;23.10;99.90;;;;;;5012205;28;20226;-74
2021/07/07 16:14:05;;;;;;;4.73;1.00;;;23.10;99.90;;;;;;5011996;28;20253;-75
2021/07/07 16:16:31;;;;;;;2.40;0.77;;;23.10;99.90;;;;;;5011745;28;20213;-75
2021/07/07 16:18:56;;;;;;;0.73;0.73;;;23.10;99.90;;;;;;5012086;28;20621;-76
2021/07/07 16:21:22;;;;;;;2.30;0.70;;;23.10;99.90;;;;;;4998198;28;20626;-76
2021/07/07 16:23:48;;;;;;;1.47;0.70;;;23.10;99.90;;;;;;4975341;28;20195;-75
2021/07/07 16:26:14;;;;;;;0.60;0.60;;;23.00;99.90;;;;;;4973038;28;20222;-75
2021/07/07 16:28:44;;;;;;;0.70;0.60;;;23.00;99.90;;;;;;4955742;28;20477;-75
2021/07/07 16:31:11;;;;;;;2.43;0.67;;;23.00;99.90;;;;;;4972980;28;20216;-74
2021/07/07 16:33:37;;;;;;;0.60;0.60;;;22.90;99.90;;;;;;4972629;28;20422;-75
2021/07/07 16:36:03;;;;;;;0.70;0.60;;;23.00;99.90;;;;;;4973028;28;20467;-75
2021/07/07 16:38:28;;;;;;;0.53;0.53;;;23.10;99.90;;;;;;4972566;28;20442;-75
2021/07/07 16:40:54;;;;;;;1.00;0.60;;;23.10;99.90;;;;;;4972639;28;20415;-75
2021/07/07 16:43:20;;;;;;;1.17;0.60;;;23.20;99.90;;;;;;4972697;28;20187;-75
2021/07/07 16:45:46;;;;;;;0.50;0.50;;;23.20;99.90;;;;;;4974095;28;20615;-75
2021/07/07 16:48:12;;;;;;;0.80;0.80;;;23.30;99.90;;;;;;4974108;28;20431;-75
2021/07/07 16:50:38;;;;;;;0.90;0.60;;;23.30;99.90;;;;;;4973556;28;20415;-73
2021/07/07 16:53:04;;;;;;;0.60;0.60;;;23.30;99.90;;;;;;4973341;28;20194;-75
2021/07/07 16:55:31;;;;;;;1.17;0.60;;;23.30;99.90;;;;;;4973336;28;20474;-75
2021/07/07 16:57:56;;;;;;;0.90;0.80;;;23.30;99.90;;;;;;4973212;28;20184;-75
2021/07/07 17:00:22;;;;;;;1.63;0.70;;;23.20;99.90;;;;;;4972505;28;20885;-75
2021/07/07 17:02:47;;;;;;;0.60;0.60;;;23.20;99.90;;;;;;4972582;28;20200;-75
2021/07/07 17:05:13;;;;;;;0.50;0.50;;;23.20;99.90;;;;;;4972521;28;20254;-75
2021/07/07 17:07:39;;;;;;;0.50;0.50;;;23.00;99.90;;;;;;4972434;28;20253;-76
2021/07/07 17:10:06;;;;;;;0.60;0.50;;;23.00;99.90;;;;;;4972473;28;20423;-75
2021/07/07 17:12:32;;;;;;;1.10;0.60;;;23.00;99.90;;;;;;4972270;28;20208;-74
2021/07/07 17:14:57;;;;;;;2.10;0.67;;;23.00;99.90;;;;;;4972677;28;20992;-75
2021/07/07 17:17:25;;;;;;;0.93;0.63;;;22.90;99.90;;;;;;4955032;28;20188;-75
2021/07/07 17:19:51;;;;;;;0.90;0.60;;;22.90;99.90;;;;;;4972723;28;20173;-75